sensor_id;sensor_type;location;lat;lon;timestamp;P1;durP1;ratioP1;P2;durP2;ratioP2
42186;SDS011;27858;51.414;0.018;2024-01-06T00:02:19;4.45;;;2.63;;
42186;SDS011;27858;51.414;0.018;2024-01-06T00:04:45;4.60;;;2.90;;
42186;SDS011;27858;51.414;0.018;2024-01-06T00:07:12;7.15;;;3.47;;
42186;SDS011;27858;51.414;0.018;2024-01-06T00:09:39;6.55;;;3.13;;
42186;SDS011;27858;51.414;0.018;2024-01-06T00:12:06;6.85;;;3.50;;
42186;SDS011;27858;51.414;0.018;2024-01-06T00:14:33;6.63;;;3.17;;
42186;SDS011;27858;51.414;0.018;2024-01-06T00:17:00;21.35;;;5.50;;
42186;SDS011;27858;51.414;0.018;2024-01-06T00:19:27;6.57;;;2.45;;
42186;SDS011;27858;51.414;0.018;2024-01-06T00:21:54;6.93;;;2.60;;
42186;SDS011;27858;51.414;0.018;2024-01-06T00:24:21;5.32;;;3.13;;
42186;SDS011;27858;51.414;0.018;2024-01-06T00:26:47;4.32;;;2.67;;
42186;SDS011;27858;51.414;0.018;2024-01-06T00:29:14;5.47;;;2.90;;
42186;SDS011;27858;51.414;0.018;2024-01-06T00:31:41;6.32;;;3.03;;
42186;SDS011;27858;51.414;0.018;2024-01-06T00:34:08;9.65;;;3.33;;
42186;SDS011;27858;51.414;0.018;2024-01-06T00:36:35;5.32;;;2.53;;
42186;SDS011;27858;51.414;0.018;2024-01-06T00:39:01;8.73;;;2.85;;
42186;SDS011;27858;51.414;0.018;2024-01-06T00:41:30;4.47;;;3.10;;
42186;SDS011;27858;51.414;0.018;2024-01-06T00:43:56;10.32;;;3.55;;
42186;SDS011;27858;51.414;0.018;2024-01-06T00:46:23;4.85;;;2.65;;
42186;SDS011;27858;51.414;0.018;2024-01-06T00:48:50;3.88;;;2.45;;
42186;SDS011;27858;51.414;0.018;2024-01-06T00:51:17;6.18;;;3.03;;
42186;SDS011;27858;51.414;0.018;2024-01-06T00:53:43;6.80;;;4.15;;
42186;SDS011;27858;51.414;0.018;2024-01-06T00:56:10;4.63;;;2.50;;
42186;SDS011;27858;51.414;0.018;2024-01-06T00:58:37;4.72;;;2.67;;
42186;SDS011;27858;51.414;0.018;2024-01-06T01:01:03;4.53;;;2.47;;
42186;SDS011;27858;51.414;0.018;2024-01-06T01:03:31;4.90;;;2.70;;
42186;SDS011;27858;51.414;0.018;2024-01-06T01:05:58;5.07;;;2.58;;
42186;SDS011;27858;51.414;0.018;2024-01-06T01:08:24;4.50;;;2.75;;
42186;SDS011;27858;51.414;0.018;2024-01-06T01:10:51;3.47;;;2.42;;
42186;SDS011;27858;51.414;0.018;2024-01-06T01:13:18;4.68;;;2.72;;
42186;SDS011;27858;51.414;0.018;2024-01-06T01:15:45;4.07;;;2.72;;
42186;SDS011;27858;51.414;0.018;2024-01-06T01:18:12;4.97;;;2.85;;
42186;SDS011;27858;51.414;0.018;2024-01-06T01:20:39;5.25;;;2.50;;
42186;SDS011;27858;51.414;0.018;2024-01-06T01:23:08;8.20;;;3.03;;
42186;SDS011;27858;51.414;0.018;2024-01-06T01:25:35;4.57;;;2.65;;
42186;SDS011;27858;51.414;0.018;2024-01-06T01:28:01;6.10;;;2.60;;
42186;SDS011;27858;51.414;0.018;2024-01-06T01:30:28;3.55;;;2.50;;
42186;SDS011;27858;51.414;0.018;2024-01-06T01:32:55;4.68;;;2.78;;
42186;SDS011;27858;51.414;0.018;2024-01-06T01:35:22;4.97;;;2.90;;
42186;SDS011;27858;51.414;0.018;2024-01-06T01:37:49;5.03;;;2.10;;
42186;SDS011;27858;51.414;0.018;2024-01-06T01:40:16;4.57;;;2.33;;
42186;SDS011;27858;51.414;0.018;2024-01-06T01:42:43;3.75;;;2.30;;
42186;SDS011;27858;51.414;0.018;2024-01-06T01:45:10;4.40;;;2.45;;
42186;SDS011;27858;51.414;0.018;2024-01-06T01:47:38;5.43;;;2.85;;
42186;SDS011;27858;51.414;0.018;2024-01-06T01:50:06;3.85;;;1.98;;
42186;SDS011;27858;51.414;0.018;2024-01-06T01:52:35;5.28;;;2.13;;
42186;SDS011;27858;51.414;0.018;2024-01-06T01:55:03;4.32;;;2.85;;
42186;SDS011;27858;51.414;0.018;2024-01-06T01:57:30;6.05;;;2.53;;
42186;SDS011;27858;51.414;0.018;2024-01-06T01:59:57;3.70;;;2.42;;
42186;SDS011;27858;51.414;0.018;2024-01-06T02:02:25;5.35;;;2.28;;
42186;SDS011;27858;51.414;0.018;2024-01-06T02:04:52;5.57;;;2.17;;
42186;SDS011;27858;51.414;0.018;2024-01-06T02:07:19;5.20;;;2.35;;
42186;SDS011;27858;51.414;0.018;2024-01-06T02:09:45;1.98;;;1.60;;
42186;SDS011;27858;51.414;0.018;2024-01-06T02:12:12;5.70;;;2.40;;
42186;SDS011;27858;51.414;0.018;2024-01-06T02:14:39;4.60;;;2.13;;
42186;SDS011;27858;51.414;0.018;2024-01-06T02:17:06;3.47;;;2.60;;
42186;SDS011;27858;51.414;0.018;2024-01-06T02:19:32;3.90;;;2.55;;
42186;SDS011;27858;51.414;0.018;2024-01-06T02:21:59;3.63;;;2.13;;
42186;SDS011;27858;51.414;0.018;2024-01-06T02:24:26;3.35;;;2.25;;
42186;SDS011;27858;51.414;0.018;2024-01-06T02:26:53;5.07;;;2.65;;
42186;SDS011;27858;51.414;0.018;2024-01-06T02:29:19;6.80;;;2.55;;
42186;SDS011;27858;51.414;0.018;2024-01-06T02:31:46;2.95;;;2.30;;
42186;SDS011;27858;51.414;0.018;2024-01-06T02:34:13;4.63;;;2.28;;
42186;SDS011;27858;51.414;0.018;2024-01-06T02:36:40;8.57;;;2.67;;
42186;SDS011;27858;51.414;0.018;2024-01-06T02:39:07;6.88;;;2.15;;
42186;SDS011;27858;51.414;0.018;2024-01-06T02:41:34;6.93;;;2.50;;
42186;SDS011;27858;51.414;0.018;2024-01-06T02:44:02;8.02;;;3.05;;
42186;SDS011;27858;51.414;0.018;2024-01-06T02:46:29;4.55;;;2.35;;
42186;SDS011;27858;51.414;0.018;2024-01-06T02:48:56;7.68;;;3.25;;
42186;SDS011;27858;51.414;0.018;2024-01-06T02:51:23;3.25;;;2.08;;
42186;SDS011;27858;51.414;0.018;2024-01-06T02:53:50;4.93;;;2.58;;
42186;SDS011;27858;51.414;0.018;2024-01-06T02:56:17;10.68;;;3.83;;
42186;SDS011;27858;51.414;0.018;2024-01-06T02:58:43;3.38;;;2.45;;
42186;SDS011;27858;51.414;0.018;2024-01-06T03:01:11;4.55;;;2.50;;
42186;SDS011;27858;51.414;0.018;2024-01-06T03:03:39;9.35;;;3.17;;
42186;SDS011;27858;51.414;0.018;2024-01-06T03:06:06;3.97;;;2.38;;
42186;SDS011;27858;51.414;0.018;2024-01-06T03:08:33;11.85;;;4.32;;
42186;SDS011;27858;51.414;0.018;2024-01-06T03:11:01;6.43;;;3.50;;
42186;SDS011;27858;51.414;0.018;2024-01-06T03:13:30;11.82;;;5.93;;
42186;SDS011;27858;51.414;0.018;2024-01-06T03:15:56;6.30;;;3.65;;
42186;SDS011;27858;51.414;0.018;2024-01-06T03:18:23;7.60;;;3.00;;
42186;SDS011;27858;51.414;0.018;2024-01-06T03:20:50;7.72;;;3.50;;
42186;SDS011;27858;51.414;0.018;2024-01-06T03:23:17;5.68;;;3.15;;
42186;SDS011;27858;51.414;0.018;2024-01-06T03:25:44;6.85;;;3.97;;
42186;SDS011;27858;51.414;0.018;2024-01-06T03:28:11;4.22;;;2.72;;
42186;SDS011;27858;51.414;0.018;2024-01-06T03:30:37;6.65;;;3.67;;
42186;SDS011;27858;51.414;0.018;2024-01-06T03:33:05;6.00;;;2.90;;
42186;SDS011;27858;51.414;0.018;2024-01-06T03:35:33;4.47;;;2.70;;
42186;SDS011;27858;51.414;0.018;2024-01-06T03:37:59;8.10;;;2.67;;
42186;SDS011;27858;51.414;0.018;2024-01-06T03:40:26;6.32;;;3.83;;
42186;SDS011;27858;51.414;0.018;2024-01-06T03:42:53;6.32;;;2.20;;
42186;SDS011;27858;51.414;0.018;2024-01-06T03:45:20;3.88;;;2.22;;
42186;SDS011;27858;51.414;0.018;2024-01-06T03:47:47;3.15;;;2.17;;
42186;SDS011;27858;51.414;0.018;2024-01-06T03:50:14;4.68;;;2.25;;
42186;SDS011;27858;51.414;0.018;2024-01-06T03:52:40;3.47;;;2.45;;
42186;SDS011;27858;51.414;0.018;2024-01-06T03:55:07;6.35;;;2.88;;
42186;SDS011;27858;51.414;0.018;2024-01-06T03:57:34;2.75;;;2.00;;
42186;SDS011;27858;51.414;0.018;2024-01-06T04:00:01;3.47;;;1.98;;
42186;SDS011;27858;51.414;0.018;2024-01-06T04:02:29;2.85;;;1.55;;
42186;SDS011;27858;51.414;0.018;2024-01-06T04:04:55;3.05;;;1.98;;
42186;SDS011;27858;51.414;0.018;2024-01-06T04:07:22;2.28;;;1.30;;
42186;SDS011;27858;51.414;0.018;2024-01-06T04:09:49;2.55;;;1.95;;
42186;SDS011;27858;51.414;0.018;2024-01-06T04:12:16;3.55;;;1.88;;
42186;SDS011;27858;51.414;0.018;2024-01-06T04:14:43;8.20;;;2.83;;
42186;SDS011;27858;51.414;0.018;2024-01-06T04:17:10;3.72;;;2.15;;
42186;SDS011;27858;51.414;0.018;2024-01-06T04:19:36;2.50;;;1.42;;
42186;SDS011;27858;51.414;0.018;2024-01-06T04:22:03;3.15;;;1.65;;
42186;SDS011;27858;51.414;0.018;2024-01-06T04:24:30;2.00;;;1.65;;
42186;SDS011;27858;51.414;0.018;2024-01-06T04:26:57;3.55;;;1.90;;
42186;SDS011;27858;51.414;0.018;2024-01-06T04:29:24;2.85;;;2.10;;
42186;SDS011;27858;51.414;0.018;2024-01-06T04:31:50;3.17;;;1.48;;
42186;SDS011;27858;51.414;0.018;2024-01-06T04:34:17;4.45;;;1.77;;
42186;SDS011;27858;51.414;0.018;2024-01-06T04:36:44;3.00;;;1.77;;
42186;SDS011;27858;51.414;0.018;2024-01-06T04:39:11;5.38;;;2.80;;
42186;SDS011;27858;51.414;0.018;2024-01-06T04:41:39;3.75;;;1.55;;
42186;SDS011;27858;51.414;0.018;2024-01-06T04:44:06;2.35;;;1.50;;
42186;SDS011;27858;51.414;0.018;2024-01-06T04:46:33;2.45;;;1.60;;
42186;SDS011;27858;51.414;0.018;2024-01-06T04:49:00;3.03;;;1.65;;
42186;SDS011;27858;51.414;0.018;2024-01-06T04:51:27;3.35;;;1.80;;
42186;SDS011;27858;51.414;0.018;2024-01-06T04:53:54;4.25;;;1.92;;
42186;SDS011;27858;51.414;0.018;2024-01-06T04:56:20;2.92;;;1.92;;
42186;SDS011;27858;51.414;0.018;2024-01-06T04:58:47;2.70;;;1.50;;
42186;SDS011;27858;51.414;0.018;2024-01-06T05:01:14;5.03;;;2.20;;
42186;SDS011;27858;51.414;0.018;2024-01-06T05:03:41;8.35;;;1.48;;
42186;SDS011;27858;51.414;0.018;2024-01-06T05:06:08;2.47;;;1.58;;
42186;SDS011;27858;51.414;0.018;2024-01-06T05:08:38;3.55;;;1.63;;
42186;SDS011;27858;51.414;0.018;2024-01-06T05:11:11;2.95;;;1.65;;
42186;SDS011;27858;51.414;0.018;2024-01-06T05:13:38;5.20;;;2.33;;
42186;SDS011;27858;51.414;0.018;2024-01-06T05:16:05;2.78;;;2.10;;
42186;SDS011;27858;51.414;0.018;2024-01-06T05:18:32;3.25;;;1.65;;
42186;SDS011;27858;51.414;0.018;2024-01-06T05:20:59;9.50;;;1.98;;
42186;SDS011;27858;51.414;0.018;2024-01-06T05:23:26;3.25;;;1.50;;
42186;SDS011;27858;51.414;0.018;2024-01-06T05:25:53;2.35;;;1.50;;
42186;SDS011;27858;51.414;0.018;2024-01-06T05:28:19;2.33;;;1.35;;
42186;SDS011;27858;51.414;0.018;2024-01-06T05:30:46;2.30;;;1.60;;
42186;SDS011;27858;51.414;0.018;2024-01-06T05:33:13;1.83;;;1.13;;
42186;SDS011;27858;51.414;0.018;2024-01-06T05:35:41;3.17;;;1.38;;
42186;SDS011;27858;51.414;0.018;2024-01-06T05:38:08;2.10;;;1.50;;
42186;SDS011;27858;51.414;0.018;2024-01-06T05:40:35;3.25;;;1.42;;
42186;SDS011;27858;51.414;0.018;2024-01-06T05:43:02;3.92;;;1.90;;
42186;SDS011;27858;51.414;0.018;2024-01-06T05:45:29;2.97;;;1.25;;
42186;SDS011;27858;51.414;0.018;2024-01-06T05:47:56;4.93;;;2.15;;
42186;SDS011;27858;51.414;0.018;2024-01-06T05:50:23;3.30;;;1.33;;
42186;SDS011;27858;51.414;0.018;2024-01-06T05:52:50;2.63;;;1.63;;
42186;SDS011;27858;51.414;0.018;2024-01-06T05:55:18;2.72;;;1.35;;
42186;SDS011;27858;51.414;0.018;2024-01-06T05:57:45;2.72;;;1.50;;
42186;SDS011;27858;51.414;0.018;2024-01-06T06:00:12;2.90;;;1.45;;
42186;SDS011;27858;51.414;0.018;2024-01-06T06:02:41;4.20;;;2.28;;
42186;SDS011;27858;51.414;0.018;2024-01-06T06:05:08;3.40;;;1.10;;
42186;SDS011;27858;51.414;0.018;2024-01-06T06:07:35;2.67;;;1.20;;
42186;SDS011;27858;51.414;0.018;2024-01-06T06:10:09;2.25;;;1.55;;
42186;SDS011;27858;51.414;0.018;2024-01-06T06:12:37;1.98;;;1.15;;
42186;SDS011;27858;51.414;0.018;2024-01-06T06:15:05;3.45;;;1.77;;
42186;SDS011;27858;51.414;0.018;2024-01-06T06:17:33;1.30;;;0.93;;
42186;SDS011;27858;51.414;0.018;2024-01-06T06:20:00;4.32;;;1.45;;
42186;SDS011;27858;51.414;0.018;2024-01-06T06:22:27;2.38;;;1.30;;
42186;SDS011;27858;51.414;0.018;2024-01-06T06:24:57;2.72;;;1.40;;
42186;SDS011;27858;51.414;0.018;2024-01-06T06:27:24;2.65;;;1.10;;
42186;SDS011;27858;51.414;0.018;2024-01-06T06:29:52;2.90;;;1.77;;
42186;SDS011;27858;51.414;0.018;2024-01-06T06:32:20;4.28;;;1.08;;
42186;SDS011;27858;51.414;0.018;2024-01-06T06:34:47;2.50;;;0.98;;
42186;SDS011;27858;51.414;0.018;2024-01-06T06:37:14;3.50;;;1.20;;
42186;SDS011;27858;51.414;0.018;2024-01-06T06:39:42;3.30;;;1.73;;
42186;SDS011;27858;51.414;0.018;2024-01-06T06:42:11;1.45;;;1.15;;
42186;SDS011;27858;51.414;0.018;2024-01-06T06:44:38;1.90;;;0.90;;
42186;SDS011;27858;51.414;0.018;2024-01-06T06:47:05;1.98;;;1.42;;
42186;SDS011;27858;51.414;0.018;2024-01-06T06:49:32;1.80;;;0.80;;
42186;SDS011;27858;51.414;0.018;2024-01-06T06:51:59;4.43;;;1.40;;
42186;SDS011;27858;51.414;0.018;2024-01-06T06:54:25;2.33;;;1.08;;
42186;SDS011;27858;51.414;0.018;2024-01-06T06:56:52;1.63;;;1.08;;
42186;SDS011;27858;51.414;0.018;2024-01-06T06:59:19;2.58;;;0.98;;
42186;SDS011;27858;51.414;0.018;2024-01-06T07:01:46;2.90;;;0.80;;
42186;SDS011;27858;51.414;0.018;2024-01-06T07:04:13;4.10;;;1.40;;
42186;SDS011;27858;51.414;0.018;2024-01-06T07:06:39;4.43;;;1.92;;
42186;SDS011;27858;51.414;0.018;2024-01-06T07:09:06;4.13;;;1.40;;
42186;SDS011;27858;51.414;0.018;2024-01-06T07:11:33;1.52;;;0.80;;
42186;SDS011;27858;51.414;0.018;2024-01-06T07:14:00;1.88;;;1.42;;
42186;SDS011;27858;51.414;0.018;2024-01-06T07:16:26;4.47;;;1.48;;
42186;SDS011;27858;51.414;0.018;2024-01-06T07:18:53;1.58;;;1.13;;
42186;SDS011;27858;51.414;0.018;2024-01-06T07:21:20;1.52;;;0.98;;
42186;SDS011;27858;51.414;0.018;2024-01-06T07:23:49;1.02;;;0.70;;
42186;SDS011;27858;51.414;0.018;2024-01-06T07:26:16;2.92;;;1.05;;
42186;SDS011;27858;51.414;0.018;2024-01-06T07:28:44;3.05;;;1.10;;
42186;SDS011;27858;51.414;0.018;2024-01-06T07:31:10;4.72;;;0.75;;
42186;SDS011;27858;51.414;0.018;2024-01-06T07:33:37;2.08;;;1.02;;
42186;SDS011;27858;51.414;0.018;2024-01-06T07:36:06;2.53;;;1.15;;
42186;SDS011;27858;51.414;0.018;2024-01-06T07:38:32;1.42;;;0.68;;
42186;SDS011;27858;51.414;0.018;2024-01-06T07:40:59;1.70;;;1.10;;
42186;SDS011;27858;51.414;0.018;2024-01-06T07:43:26;2.35;;;1.58;;
42186;SDS011;27858;51.414;0.018;2024-01-06T07:45:53;4.15;;;1.13;;
42186;SDS011;27858;51.414;0.018;2024-01-06T07:48:20;2.33;;;1.38;;
42186;SDS011;27858;51.414;0.018;2024-01-06T07:50:47;2.13;;;1.20;;
42186;SDS011;27858;51.414;0.018;2024-01-06T07:53:14;2.38;;;1.73;;
42186;SDS011;27858;51.414;0.018;2024-01-06T07:55:40;4.03;;;1.30;;
42186;SDS011;27858;51.414;0.018;2024-01-06T07:58:07;2.00;;;1.20;;
42186;SDS011;27858;51.414;0.018;2024-01-06T08:00:34;3.65;;;1.35;;
42186;SDS011;27858;51.414;0.018;2024-01-06T08:03:01;2.47;;;1.65;;
42186;SDS011;27858;51.414;0.018;2024-01-06T08:05:28;3.28;;;1.27;;
42186;SDS011;27858;51.414;0.018;2024-01-06T08:07:55;1.75;;;1.38;;
42186;SDS011;27858;51.414;0.018;2024-01-06T08:10:22;2.22;;;0.88;;
42186;SDS011;27858;51.414;0.018;2024-01-06T08:12:49;4.50;;;1.15;;
42186;SDS011;27858;51.414;0.018;2024-01-06T08:15:15;2.58;;;1.17;;
42186;SDS011;27858;51.414;0.018;2024-01-06T08:17:42;2.80;;;1.00;;
42186;SDS011;27858;51.414;0.018;2024-01-06T08:20:09;1.80;;;1.30;;
42186;SDS011;27858;51.414;0.018;2024-01-06T08:22:36;1.85;;;1.10;;
42186;SDS011;27858;51.414;0.018;2024-01-06T08:25:03;2.40;;;1.02;;
42186;SDS011;27858;51.414;0.018;2024-01-06T08:27:32;2.45;;;1.00;;
42186;SDS011;27858;51.414;0.018;2024-01-06T08:30:00;3.08;;;1.60;;
42186;SDS011;27858;51.414;0.018;2024-01-06T08:32:27;6.00;;;1.20;;
42186;SDS011;27858;51.414;0.018;2024-01-06T08:34:54;2.08;;;1.00;;
42186;SDS011;27858;51.414;0.018;2024-01-06T08:37:21;2.33;;;1.15;;
42186;SDS011;27858;51.414;0.018;2024-01-06T08:39:48;4.38;;;1.95;;
42186;SDS011;27858;51.414;0.018;2024-01-06T08:42:15;2.70;;;0.90;;
42186;SDS011;27858;51.414;0.018;2024-01-06T08:44:41;1.55;;;1.45;;
42186;SDS011;27858;51.414;0.018;2024-01-06T08:47:09;3.00;;;0.90;;
42186;SDS011;27858;51.414;0.018;2024-01-06T08:49:36;0.80;;;0.70;;
42186;SDS011;27858;51.414;0.018;2024-01-06T08:52:04;4.25;;;1.80;;
42186;SDS011;27858;51.414;0.018;2024-01-06T08:54:31;2.13;;;0.98;;
42186;SDS011;27858;51.414;0.018;2024-01-06T08:56:59;4.88;;;0.98;;
42186;SDS011;27858;51.414;0.018;2024-01-06T08:59:26;1.48;;;0.93;;
42186;SDS011;27858;51.414;0.018;2024-01-06T09:01:52;3.45;;;0.88;;
42186;SDS011;27858;51.414;0.018;2024-01-06T09:04:19;3.15;;;1.00;;
42186;SDS011;27858;51.414;0.018;2024-01-06T09:06:46;2.42;;;0.80;;
42186;SDS011;27858;51.414;0.018;2024-01-06T09:09:13;3.45;;;0.88;;
42186;SDS011;27858;51.414;0.018;2024-01-06T09:11:40;1.45;;;0.60;;
42186;SDS011;27858;51.414;0.018;2024-01-06T09:14:08;1.27;;;0.40;;
42186;SDS011;27858;51.414;0.018;2024-01-06T09:16:36;2.65;;;0.70;;
42186;SDS011;27858;51.414;0.018;2024-01-06T09:19:03;0.82;;;0.55;;
42186;SDS011;27858;51.414;0.018;2024-01-06T09:21:30;1.98;;;1.23;;
42186;SDS011;27858;51.414;0.018;2024-01-06T09:23:57;3.15;;;1.00;;
42186;SDS011;27858;51.414;0.018;2024-01-06T09:26:24;1.40;;;0.85;;
42186;SDS011;27858;51.414;0.018;2024-01-06T09:28:51;1.00;;;0.90;;
42186;SDS011;27858;51.414;0.018;2024-01-06T09:31:17;0.90;;;0.60;;
42186;SDS011;27858;51.414;0.018;2024-01-06T09:33:44;0.40;;;0.40;;
42186;SDS011;27858;51.414;0.018;2024-01-06T09:36:11;2.72;;;1.20;;
42186;SDS011;27858;51.414;0.018;2024-01-06T09:38:40;1.48;;;0.90;;
42186;SDS011;27858;51.414;0.018;2024-01-06T09:41:06;1.27;;;0.95;;
42186;SDS011;27858;51.414;0.018;2024-01-06T09:43:33;2.80;;;0.75;;
42186;SDS011;27858;51.414;0.018;2024-01-06T09:46:05;1.85;;;0.70;;
42186;SDS011;27858;51.414;0.018;2024-01-06T09:48:39;1.58;;;0.73;;
42186;SDS011;27858;51.414;0.018;2024-01-06T09:51:09;2.03;;;0.60;;
42186;SDS011;27858;51.414;0.018;2024-01-06T09:53:41;1.10;;;0.38;;
42186;SDS011;27858;51.414;0.018;2024-01-06T09:56:14;0.30;;;0.30;;
42186;SDS011;27858;51.414;0.018;2024-01-06T09:58:43;2.75;;;0.68;;
42186;SDS011;27858;51.414;0.018;2024-01-06T10:01:11;0.55;;;0.40;;
42186;SDS011;27858;51.414;0.018;2024-01-06T10:03:38;1.38;;;0.35;;
42186;SDS011;27858;51.414;0.018;2024-01-06T10:06:05;1.75;;;0.50;;
42186;SDS011;27858;51.414;0.018;2024-01-06T10:08:32;0.82;;;0.60;;
42186;SDS011;27858;51.414;0.018;2024-01-06T10:10:59;1.40;;;0.75;;
42186;SDS011;27858;51.414;0.018;2024-01-06T10:13:27;2.15;;;0.90;;
42186;SDS011;27858;51.414;0.018;2024-01-06T10:15:54;0.52;;;0.28;;
42186;SDS011;27858;51.414;0.018;2024-01-06T10:18:21;2.58;;;0.50;;
42186;SDS011;27858;51.414;0.018;2024-01-06T10:20:49;1.23;;;0.60;;
42186;SDS011;27858;51.414;0.018;2024-01-06T10:23:16;3.50;;;0.55;;
42186;SDS011;27858;51.414;0.018;2024-01-06T10:25:43;0.50;;;0.30;;
42186;SDS011;27858;51.414;0.018;2024-01-06T10:28:13;1.10;;;0.55;;
42186;SDS011;27858;51.414;0.018;2024-01-06T10:30:40;0.35;;;0.28;;
42186;SDS011;27858;51.414;0.018;2024-01-06T10:33:09;2.70;;;0.65;;
42186;SDS011;27858;51.414;0.018;2024-01-06T10:35:37;0.90;;;0.30;;
42186;SDS011;27858;51.414;0.018;2024-01-06T10:38:04;0.40;;;0.30;;
42186;SDS011;27858;51.414;0.018;2024-01-06T10:40:30;1.00;;;0.60;;
42186;SDS011;27858;51.414;0.018;2024-01-06T10:42:57;1.10;;;0.70;;
42186;SDS011;27858;51.414;0.018;2024-01-06T10:45:25;1.00;;;0.60;;
42186;SDS011;27858;51.414;0.018;2024-01-06T10:47:56;0.60;;;0.43;;
42186;SDS011;27858;51.414;0.018;2024-01-06T10:50:24;3.63;;;1.38;;
42186;SDS011;27858;51.414;0.018;2024-01-06T10:52:52;1.50;;;0.85;;
42186;SDS011;27858;51.414;0.018;2024-01-06T10:55:21;1.45;;;1.27;;
42186;SDS011;27858;51.414;0.018;2024-01-06T10:57:49;1.77;;;1.27;;
42186;SDS011;27858;51.414;0.018;2024-01-06T11:00:17;8.85;;;1.45;;
42186;SDS011;27858;51.414;0.018;2024-01-06T11:02:44;3.45;;;1.42;;
42186;SDS011;27858;51.414;0.018;2024-01-06T11:05:13;1.50;;;1.08;;
42186;SDS011;27858;51.414;0.018;2024-01-06T11:07:40;3.75;;;1.25;;
42186;SDS011;27858;51.414;0.018;2024-01-06T11:10:13;2.72;;;1.60;;
42186;SDS011;27858;51.414;0.018;2024-01-06T11:12:43;1.70;;;1.35;;
42186;SDS011;27858;51.414;0.018;2024-01-06T11:15:10;1.45;;;1.23;;
42186;SDS011;27858;51.414;0.018;2024-01-06T11:17:57;2.75;;;1.00;;
42186;SDS011;27858;51.414;0.018;2024-01-06T11:20:25;3.15;;;1.10;;
42186;SDS011;27858;51.414;0.018;2024-01-06T11:22:53;2.42;;;1.13;;
42186;SDS011;27858;51.414;0.018;2024-01-06T11:25:20;2.58;;;1.27;;
42186;SDS011;27858;51.414;0.018;2024-01-06T11:27:48;3.53;;;1.10;;
42186;SDS011;27858;51.414;0.018;2024-01-06T11:30:26;2.25;;;1.23;;
42186;SDS011;27858;51.414;0.018;2024-01-06T11:32:56;4.40;;;1.60;;
42186;SDS011;27858;51.414;0.018;2024-01-06T11:35:26;2.90;;;1.17;;
42186;SDS011;27858;51.414;0.018;2024-01-06T11:37:54;3.38;;;1.42;;
42186;SDS011;27858;51.414;0.018;2024-01-06T11:42:58;2.00;;;1.20;;
42186;SDS011;27858;51.414;0.018;2024-01-06T11:45:37;2.38;;;0.90;;
42186;SDS011;27858;51.414;0.018;2024-01-06T11:48:07;2.22;;;1.40;;
42186;SDS011;27858;51.414;0.018;2024-01-06T11:50:37;2.25;;;1.42;;
42186;SDS011;27858;51.414;0.018;2024-01-06T11:53:05;2.55;;;1.15;;
42186;SDS011;27858;51.414;0.018;2024-01-06T11:55:34;4.18;;;1.80;;
42186;SDS011;27858;51.414;0.018;2024-01-06T11:58:01;2.00;;;1.00;;
42186;SDS011;27858;51.414;0.018;2024-01-06T12:00:30;2.13;;;1.35;;
42186;SDS011;27858;51.414;0.018;2024-01-06T12:02:58;5.63;;;1.55;;
42186;SDS011;27858;51.414;0.018;2024-01-06T12:05:27;6.85;;;1.25;;
42186;SDS011;27858;51.414;0.018;2024-01-06T12:07:58;5.03;;;1.83;;
42186;SDS011;27858;51.414;0.018;2024-01-06T12:10:26;1.67;;;1.00;;
42186;SDS011;27858;51.414;0.018;2024-01-06T12:13:00;1.95;;;1.02;;
42186;SDS011;27858;51.414;0.018;2024-01-06T12:15:29;1.67;;;1.05;;
42186;SDS011;27858;51.414;0.018;2024-01-06T12:17:58;1.25;;;0.90;;
42186;SDS011;27858;51.414;0.018;2024-01-06T12:20:26;1.73;;;1.02;;
42186;SDS011;27858;51.414;0.018;2024-01-06T12:22:55;1.10;;;0.85;;
42186;SDS011;27858;51.414;0.018;2024-01-06T12:25:22;3.10;;;1.33;;
42186;SDS011;27858;51.414;0.018;2024-01-06T12:27:50;1.75;;;1.23;;
42186;SDS011;27858;51.414;0.018;2024-01-06T12:30:19;4.25;;;0.77;;
42186;SDS011;27858;51.414;0.018;2024-01-06T12:32:48;3.53;;;0.95;;
42186;SDS011;27858;51.414;0.018;2024-01-06T12:35:16;2.45;;;1.08;;
42186;SDS011;27858;51.414;0.018;2024-01-06T12:37:43;2.42;;;0.95;;
42186;SDS011;27858;51.414;0.018;2024-01-06T12:40:11;0.90;;;0.70;;
42186;SDS011;27858;51.414;0.018;2024-01-06T12:42:39;1.73;;;1.00;;
42186;SDS011;27858;51.414;0.018;2024-01-06T12:45:06;1.50;;;0.85;;
42186;SDS011;27858;51.414;0.018;2024-01-06T12:47:34;1.42;;;1.05;;
42186;SDS011;27858;51.414;0.018;2024-01-06T12:50:01;1.63;;;1.42;;
42186;SDS011;27858;51.414;0.018;2024-01-06T12:52:28;3.35;;;1.50;;
42186;SDS011;27858;51.414;0.018;2024-01-06T12:54:54;1.70;;;0.98;;
42186;SDS011;27858;51.414;0.018;2024-01-06T12:57:21;0.73;;;0.73;;
42186;SDS011;27858;51.414;0.018;2024-01-06T12:59:48;2.10;;;0.40;;
42186;SDS011;27858;51.414;0.018;2024-01-06T13:02:15;2.85;;;0.93;;
42186;SDS011;27858;51.414;0.018;2024-01-06T13:04:42;0.88;;;0.60;;
42186;SDS011;27858;51.414;0.018;2024-01-06T13:07:09;1.85;;;0.52;;
42186;SDS011;27858;51.414;0.018;2024-01-06T13:09:36;0.73;;;0.70;;
42186;SDS011;27858;51.414;0.018;2024-01-06T13:12:03;0.70;;;0.50;;
42186;SDS011;27858;51.414;0.018;2024-01-06T13:14:31;1.42;;;0.73;;
42186;SDS011;27858;51.414;0.018;2024-01-06T13:16:58;2.25;;;1.20;;
42186;SDS011;27858;51.414;0.018;2024-01-06T13:19:25;1.10;;;0.60;;
42186;SDS011;27858;51.414;0.018;2024-01-06T13:21:52;2.33;;;0.85;;
42186;SDS011;27858;51.414;0.018;2024-01-06T13:24:19;2.50;;;1.42;;
42186;SDS011;27858;51.414;0.018;2024-01-06T13:26:46;1.17;;;0.43;;
42186;SDS011;27858;51.414;0.018;2024-01-06T13:29:13;0.77;;;0.70;;
42186;SDS011;27858;51.414;0.018;2024-01-06T13:31:39;0.95;;;0.73;;
42186;SDS011;27858;51.414;0.018;2024-01-06T13:34:07;1.33;;;0.77;;
42186;SDS011;27858;51.414;0.018;2024-01-06T13:36:34;1.25;;;0.80;;
42186;SDS011;27858;51.414;0.018;2024-01-06T13:39:02;1.20;;;0.70;;
42186;SDS011;27858;51.414;0.018;2024-01-06T13:41:30;1.30;;;0.75;;
42186;SDS011;27858;51.414;0.018;2024-01-06T13:43:57;1.38;;;0.60;;
42186;SDS011;27858;51.414;0.018;2024-01-06T13:46:24;2.58;;;0.60;;
42186;SDS011;27858;51.414;0.018;2024-01-06T13:48:51;1.85;;;0.77;;
42186;SDS011;27858;51.414;0.018;2024-01-06T13:51:18;1.35;;;1.05;;
42186;SDS011;27858;51.414;0.018;2024-01-06T13:53:45;2.50;;;1.13;;
42186;SDS011;27858;51.414;0.018;2024-01-06T13:56:11;1.45;;;0.80;;
42186;SDS011;27858;51.414;0.018;2024-01-06T13:58:38;1.45;;;1.23;;
42186;SDS011;27858;51.414;0.018;2024-01-06T14:01:05;1.55;;;1.00;;
42186;SDS011;27858;51.414;0.018;2024-01-06T14:03:32;3.97;;;1.10;;
42186;SDS011;27858;51.414;0.018;2024-01-06T14:05:59;0.88;;;0.70;;
42186;SDS011;27858;51.414;0.018;2024-01-06T14:08:26;2.20;;;0.80;;
42186;SDS011;27858;51.414;0.018;2024-01-06T14:10:53;2.30;;;1.23;;
42186;SDS011;27858;51.414;0.018;2024-01-06T14:13:20;0.95;;;0.82;;
42186;SDS011;27858;51.414;0.018;2024-01-06T14:15:46;1.70;;;1.02;;
42186;SDS011;27858;51.414;0.018;2024-01-06T14:18:13;1.10;;;0.88;;
42186;SDS011;27858;51.414;0.018;2024-01-06T14:20:42;5.38;;;0.65;;
42186;SDS011;27858;51.414;0.018;2024-01-06T14:23:09;0.50;;;0.47;;
42186;SDS011;27858;51.414;0.018;2024-01-06T14:25:36;1.45;;;0.98;;
42186;SDS011;27858;51.414;0.018;2024-01-06T14:28:04;2.55;;;1.10;;
42186;SDS011;27858;51.414;0.018;2024-01-06T14:30:32;0.98;;;0.88;;
42186;SDS011;27858;51.414;0.018;2024-01-06T14:32:59;6.10;;;0.90;;
42186;SDS011;27858;51.414;0.018;2024-01-06T14:35:26;0.95;;;0.80;;
42186;SDS011;27858;51.414;0.018;2024-01-06T14:37:53;0.82;;;0.73;;
42186;SDS011;27858;51.414;0.018;2024-01-06T14:40:20;1.50;;;1.15;;
42186;SDS011;27858;51.414;0.018;2024-01-06T14:42:47;0.95;;;0.80;;
42186;SDS011;27858;51.414;0.018;2024-01-06T14:45:14;1.25;;;0.80;;
42186;SDS011;27858;51.414;0.018;2024-01-06T14:47:42;1.45;;;0.70;;
42186;SDS011;27858;51.414;0.018;2024-01-06T14:50:09;3.10;;;1.05;;
42186;SDS011;27858;51.414;0.018;2024-01-06T14:52:36;0.88;;;0.88;;